Airport View

Enter AWOS ICAO identifier for current METAR.

ex. KFNL

KWHP 191855Z 11005KT 6SM HZ SKC 22/14 A3002

19 Jun 2019 19:25

Frequency: 132.1

Phone: 818-899-9820

Other Area AWOS: KBUR - KVNY - KSMO - KCQT

TAF KBUR 191737Z 1918/2018 19003KT 6SM HZ OVC014 FM191815 19009KT P6SM SKC FM200400 16005KT P6SM OVC015 FM201000 VRB03KT 5SM BR OVC008 FM201600 14005KT P6SM OVC015